Change the Weather History Date:

Wednesday, January 30, 2008

  Actual Average Record
Temperature  
Mean Temperature 35 °F -  
Max Temperature 46 °F 44 °F 73 °F (2002)
Min Temperature 24 °F 22 °F -10 °F (1966)
Degree Days  
Heating Degree Days 30    
Moisture  
Dew Point 9 °F    
Average Humidity 40    
Maximum Humidity 87    
Minimum Humidity 16    
Precipitation  
Precipitation 0.01 in - - ()
Sea Level Pressure  
Sea Level Pressure 29.81 in    
Wind  
Wind Speed 15 mph (West)    
Max Wind Speed 36 mph    
Max Gust Speed 61 mph    
Visibility 10 miles    
Events Rain    
Averages and records for this station are not official NWS values.
T = Trace of Precipitation, MM = Missing Value Source: NWS Daily Summary

Daily Weather History Graph

Daily Weather History Graph

Search for Another Location

Airport or City:

Trip Planner

Search our weather history database for the weather conditions in past years. The results will help you decide how hot, cold, wet, or windy it might be!

Date:

Astronomy

Jan. 30, 2008 Rise Set
Actual Time 7:29 AM EST 5:49 PM EST
Civil Twilight 7:01 AM EST 6:16 PM EST
Nautical Twilight 6:30 AM EST 6:47 PM EST
Astronomical Twilight 6:00 AM EST 7:17 PM EST
Moon 1:16 AM EST (1/30) 11:25 AM EST (1/30)
Length of Visible Light 11h 14m
Length of Day
10h 20m
Last Quarter, 45% of the Moon is Illuminated
Jan 30
Last Quarter
Feb 6
New
Feb 13
First Quarter
Feb 20
Full
Feb 28
Last Quarter

Hourly Weather History & Observations

Time (EST) Temp. Windchill Dew Point Humidity Pressure Visibility Wind Dir Wind Speed Gust Speed Precip Events Conditions
12:01 AM 42.8 °F 38.0 °F 39.2 °F 87% 29.60 in 10.0 mi SSE 8.1 mph 18.4 mph N/A Rain Rain
12:21 AM 42.8 °F 38.0 °F 39.2 °F 87% 29.60 in 7.0 mi SSE 8.1 mph - N/A Rain Rain
12:41 AM 42.8 °F 37.5 °F 39.2 °F 87% 29.57 in 3.0 mi SSE 9.2 mph - N/A   Drizzle
1:01 AM 42.8 °F 37.5 °F 39.2 °F 87% 29.55 in 5.0 mi SSE 9.2 mph 20.7 mph N/A   Overcast
1:22 AM 44.6 °F 39.2 °F 41.0 °F 87% 29.54 in 7.0 mi South 10.4 mph 25.3 mph N/A   Overcast
1:41 AM 44.6 °F 40.2 °F 41.0 °F 87% 29.53 in 5.0 mi SSE 8.1 mph 16.1 mph N/A   Overcast
2:01 AM 44.6 °F 39.7 °F 41.0 °F 87% 29.54 in 5.0 mi SSE 9.2 mph 17.3 mph N/A   Overcast
2:21 AM 46.4 °F 44.3 °F 42.8 °F 87% 29.57 in 7.0 mi South 4.6 mph - N/A Rain Heavy Rain
2:41 AM 46.4 °F 39.0 °F 41.0 °F 81% 29.57 in 10.0 mi WSW 19.6 mph 25.3 mph N/A   Light Drizzle
3:02 AM 44.6 °F 37.4 °F 37.4 °F 76% 29.60 in 10.0 mi West 16.1 mph 27.6 mph N/A   Overcast
3:21 AM 44.6 °F 36.9 °F 33.8 °F 66% 29.61 in 10.0 mi West 18.4 mph 33.4 mph N/A   Overcast
3:41 AM 42.8 °F 33.3 °F 32.0 °F 66% 29.62 in 10.0 mi West 24.2 mph 40.3 mph N/A   Overcast
4:01 AM 41.0 °F 30.9 °F 30.2 °F 65% 29.63 in 10.0 mi West 24.2 mph 34.5 mph N/A   Mostly Cloudy
4:21 AM 39.2 °F 28.7 °F 32.0 °F 75% 29.65 in 10.0 mi West 23.0 mph 40.3 mph N/A   Overcast
4:41 AM 37.4 °F 26.4 °F 26.6 °F 65% 29.66 in 10.0 mi WNW 23.0 mph 42.6 mph N/A   Mostly Cloudy
5:01 AM 35.6 °F 24.8 °F 21.2 °F 56% 29.68 in 10.0 mi West 19.6 mph 39.1 mph N/A   Mostly Cloudy
5:21 AM 33.8 °F 20.5 °F 19.4 °F 56% 29.66 in 10.0 mi WNW 27.6 mph 46.0 mph N/A   Mostly Cloudy
5:41 AM 33.8 °F 22.8 °F 19.4 °F 56% 29.67 in 10.0 mi WNW 18.4 mph 50.6 mph N/A   Scattered Clouds
6:02 AM 30.2 °F 15.9 °F 10.4 °F 44% 29.68 in 10.0 mi West 26.5 mph 49.5 mph N/A   Clear
6:21 AM 28.4 °F 12.0 °F 1.4 °F 31% 29.69 in 10.0 mi WNW 33.4 mph 56.4 mph N/A   Clear
6:41 AM 26.6 °F 9.3 °F -0.4 °F 31% 29.69 in 10.0 mi WNW 34.5 mph 61.0 mph N/A   Clear
7:01 AM 24.8 °F 6.6 °F -0.4 °F 34% 29.71 in 10.0 mi WNW 35.7 mph 58.7 mph 0.01 in   Clear
7:21 AM 24.8 °F 9.3 °F 1.4 °F 36% 29.74 in 10.0 mi West 24.2 mph 48.3 mph 0.01 in   Clear
7:41 AM 24.8 °F 8.1 °F 5.0 °F 43% 29.75 in 10.0 mi West 28.8 mph 51.8 mph 0.01 in   Clear
8:03 AM 24.8 °F 7.6 °F 3.2 °F 40% 29.75 in 10.0 mi WNW 31.1 mph 52.9 mph N/A   Clear
8:21 AM 24.8 °F 7.3 °F -0.4 °F 34% 29.75 in 10.0 mi WNW 32.2 mph 52.9 mph N/A   Clear
8:41 AM 24.8 °F 8.7 °F -2.2 °F 31% 29.77 in 10.0 mi WNW 26.5 mph 46.0 mph N/A   Clear
9:01 AM 26.6 °F 9.6 °F -5.8 °F 24% 29.78 in 10.0 mi WNW 33.4 mph 61.0 mph N/A   Clear
9:21 AM 28.4 °F 17.0 °F -7.6 °F 21% 29.82 in 10.0 mi West 15.0 mph 49.5 mph N/A   Clear
9:41 AM 28.4 °F 16.2 °F -7.6 °F 21% 29.84 in 10.0 mi West 17.3 mph 36.8 mph N/A   Clear
10:01 AM 30.2 °F 21.9 °F -7.6 °F 19% 29.86 in 10.0 mi WSW 9.2 mph 36.8 mph N/A   Clear
10:21 AM 30.2 °F 19.8 °F -5.8 °F 21% 29.88 in 10.0 mi West 13.8 mph 35.7 mph N/A   Clear
10:41 AM 30.2 °F 21.3 °F -5.8 °F 21% 29.90 in 10.0 mi WSW 10.4 mph 21.9 mph N/A   Clear
11:02 AM 30.2 °F 19.3 °F -5.8 °F 21% 29.90 in 10.0 mi WNW 15.0 mph 23.0 mph N/A   Clear
11:21 AM 33.8 °F 23.2 °F -4.0 °F 20% 29.91 in 10.0 mi WNW 17.3 mph 28.8 mph N/A   Clear
11:41 AM 33.8 °F 26.4 °F -4.0 °F 20% 29.92 in 10.0 mi West 9.2 mph 23.0 mph N/A   Clear
12:01 PM 33.8 °F 24.8 °F -4.0 °F 20% 29.92 in 10.0 mi West 12.7 mph 26.5 mph N/A   Clear
12:22 PM 33.8 °F 22.8 °F -5.8 °F 18% 29.93 in 10.0 mi West 18.4 mph - N/A   Clear
12:41 PM 35.6 °F 26.2 °F -2.2 °F 20% 29.93 in 10.0 mi West 15.0 mph 20.7 mph N/A   Clear
1:01 PM 35.6 °F 29.2 °F -0.4 °F 22% 29.94 in 10.0 mi West 8.1 mph 17.3 mph N/A   Clear
1:21 PM 35.6 °F 25.5 °F -4.0 °F 18% 29.94 in 10.0 mi West 17.3 mph 21.9 mph N/A   Clear
1:41 PM 37.4 °F 29.3 °F -5.8 °F 16% 29.94 in 10.0 mi West 12.7 mph 16.1 mph N/A   Clear
2:02 PM 37.4 °F 29.3 °F -4.0 °F 17% 29.94 in 10.0 mi West 12.7 mph 16.1 mph N/A   Clear
2:23 PM 37.4 °F 28.5 °F -4.0 °F 17% 29.94 in 10.0 mi West 15.0 mph 19.6 mph N/A   Clear
2:41 PM 37.4 °F 27.5 °F -4.0 °F 17% 29.96 in 10.0 mi West 18.4 mph 23.0 mph N/A   Clear
3:01 PM 37.4 °F 28.5 °F -5.8 °F 16% 29.96 in 10.0 mi West 15.0 mph 18.4 mph N/A   Clear
3:21 PM 37.4 °F 28.9 °F -4.0 °F 17% 29.97 in 10.0 mi West 13.8 mph - N/A   Clear
3:41 PM 37.4 °F 28.2 °F -5.8 °F 16% 29.97 in 10.0 mi West 16.1 mph 20.7 mph N/A   Clear
4:02 PM 37.4 °F 30.8 °F -2.2 °F 19% 29.99 in 10.0 mi West 9.2 mph - N/A   Clear
4:21 PM 37.4 °F 29.8 °F -2.2 °F 19% 30.00 in 10.0 mi West 11.5 mph - N/A   Clear
4:41 PM 37.4 °F 33.8 °F -0.4 °F 20% 30.01 in 10.0 mi WNW 4.6 mph - N/A   Clear
5:01 PM 35.6 °F 32.8 °F -2.2 °F 20% 30.02 in 10.0 mi NNW 3.5 mph - N/A   Clear
5:21 PM 35.6 °F 32.8 °F -0.4 °F 22% 30.02 in 10.0 mi NNW 3.5 mph - N/A   Clear
5:42 PM 33.8 °F 29.6 °F -0.4 °F 23% 30.03 in 10.0 mi NNW 4.6 mph - N/A   Clear
6:01 PM 33.8 °F 30.8 °F 1.4 °F 25% 30.03 in 10.0 mi NNW 3.5 mph - N/A   Clear
6:21 PM 33.8 °F 24.3 °F 1.4 °F 25% 30.04 in 10.0 mi NW 13.8 mph 18.4 mph N/A   Clear
6:42 PM 33.8 °F 27.0 °F 3.2 °F 28% 30.05 in 10.0 mi NW 8.1 mph - N/A   Clear
7:01 PM 33.8 °F 30.8 °F 3.2 °F 28% 30.06 in 10.0 mi NW 3.5 mph - N/A   Clear
7:21 PM 33.8 °F - 3.2 °F 28% 30.07 in 10.0 mi Calm Calm - N/A   Clear
7:41 PM 30.2 °F 25.4 °F 6.8 °F 37% 30.09 in 10.0 mi South 4.6 mph - N/A   Clear
8:01 PM 30.2 °F - 5.0 °F 34% 30.10 in 10.0 mi Calm Calm - N/A   Clear
8:21 PM 30.2 °F 21.9 °F 6.8 °F 37% 30.11 in 10.0 mi West 9.2 mph - N/A   Clear
8:41 PM 30.2 °F 21.9 °F 6.8 °F 37% 30.11 in 10.0 mi West 9.2 mph - N/A   Clear
9:01 PM 30.2 °F 22.6 °F 6.8 °F 37% 30.12 in 10.0 mi West 8.1 mph - N/A   Clear
9:21 PM 30.2 °F 20.8 °F 8.6 °F 40% 30.13 in 10.0 mi WNW 11.5 mph - N/A   Clear
9:41 PM 30.2 °F 23.4 °F 8.6 °F 40% 30.13 in 10.0 mi WNW 6.9 mph - N/A   Clear
10:01 PM 30.2 °F 22.6 °F 6.8 °F 37% 30.13 in 10.0 mi NW 8.1 mph - N/A   Clear
10:22 PM 28.4 °F 22.2 °F 6.8 °F 40% 30.13 in 10.0 mi WNW 5.8 mph - N/A   Clear
10:41 PM 28.4 °F - 6.8 °F 40% 30.14 in 10.0 mi Calm Calm - N/A   Clear
11:01 PM 26.6 °F - 8.6 °F 47% 30.14 in 10.0 mi Calm Calm - N/A   Clear
11:21 PM 28.4 °F 24.6 °F 5.0 °F 37% 30.15 in 10.0 mi NE 3.5 mph - N/A   Clear
11:41 PM 28.4 °F 23.3 °F 5.0 °F 37% 30.14 in 10.0 mi NNE 4.6 mph - N/A   Clear